Latest Weather Observations for Omeo

IDV60801

Issued at 11:02 am EDT Saturday 7 March 2015 (issued every 30 minutes, with the page automatically refreshed every 10 minutes)

About weather observations | Map of weather stations | Latest weather observations for VIC | Other Formats
Station Details ID: 083090 Name: OMEO Lat: -37.10 Lon: 147.60 Height: 689.8 m
Data from the previous 72 hours. | See also: Recent months at Omeo
Date/Time
EDT
Temp
°C
App
Temp
°C
Dew
Point
Rel
Hum
%
Delta-T
°C
Wind Press
QNH
hPa
Press
MSL
hPa
Rain
since 9 am
mm
Dir
 
Spd
km/h
Gust
km/h
Spd
kts
Gust
kts
07/11:00am 16.5 13.7 10.1 66 3.5 NNW 15 24 8 13 1012.5 1010.5 0.0
07/10:30am 15.2 12.0 10.0 71 2.8 N 17 22 9 12 1012.7 1010.7 0.0
07/10:00am 13.7 10.4 9.4 75 2.3 N 17 24 9 13 1012.9 1010.9 0.0
07/09:30am 13.2 9.9 9.5 78 2.0 N 17 22 9 12 1012.9 1010.9 0.0
07/09:00am 11.6 9.4 9.3 86 1.2 NNW 11 17 6 9 1013.0 1011.0 0.0
07/08:30am 9.6 7.6 8.7 94 0.5 N 9 13 5 7 1013.0 1011.0 0.0
07/08:00am 7.7 7.0 7.1 96 0.3 CALM 0 0 0 0 1012.9 1010.9 0.0
07/07:30am 5.9 4.8 5.2 95 0.3 CALM 0 0 0 0 1012.7 1010.7 0.0
07/07:00am 6.3 5.3 5.6 95 0.3 CALM 0 0 0 0 1012.3 1010.2 0.0
07/06:30am 6.4 5.4 5.7 95 0.3 CALM 0 0 0 0 1012.1 1010.0 0.0
07/06:00am 7.1 6.3 6.4 95 0.3 CALM 0 0 0 0 1011.9 1009.8 0.0
07/05:30am 7.2 5.3 6.5 95 0.3 SE 6 9 3 5 1012.0 1009.9 0.0
07/05:00am 7.1 5.1 6.2 94 0.4 SE 6 7 3 4 1011.7 1009.7 0.0
07/04:30am 8.0 7.3 7.1 94 0.4 CALM 0 0 0 0 1011.6 1009.6 0.0
07/04:00am 8.4 7.8 7.3 93 0.5 CALM 0 6 0 3 1011.6 1009.6 0.0
07/03:30am 8.8 7.5 7.6 92 0.6 NNW 4 7 2 4 1012.0 1009.9 0.0
07/03:00am 9.2 8.6 7.6 90 0.8 CALM 0 0 0 0 1012.3 1010.2 0.0
07/02:30am 10.3 9.0 9.1 92 0.6 S 6 9 3 5 1012.6 1010.6 0.0
07/02:00am 9.8 9.5 8.7 93 0.6 CALM 0 0 0 0 1012.6 1010.6 0.0
07/01:30am 9.5 8.4 8.3 92 0.6 SE 4 13 2 7 1012.6 1010.6 0.0
07/01:00am 9.3 8.4 7.9 91 0.7 SSE 2 6 1 3 1012.4 1010.3 0.0
07/12:30am 10.3 8.8 8.6 89 0.9 S 6 9 3 5 1012.5 1010.5 0.0
07/12:00am 11.0 9.5 8.6 85 1.2 SSE 6 9 3 5 1012.4 1010.3 0.0
 
Date/Time
EDT
Temp
°C
App
Temp
°C
Dew
Point
Rel
Hum
%
Delta-T
°C
Wind Press
QNH
hPa
Press
MSL
hPa
Rain
since 9 am
mm
Dir
 
Spd
km/h
Gust
km/h
Spd
kts
Gust
kts
06/11:30pm 12.2 11.0 10.3 88 1.0 SSW 7 9 4 5 1012.4 1010.3 0.0
06/11:00pm 11.4 10.3 9.8 90 0.8 SW 6 7 3 4 1012.4 1010.3 0.0
06/10:30pm 10.9 10.6 8.8 87 1.1 CALM 0 0 0 0 1012.3 1010.2 0.0
06/10:00pm 11.7 10.2 9.3 85 1.3 SSE 7 9 4 5 1011.9 1009.8 0.0
06/09:30pm 12.3 11.0 9.3 82 1.6 SSE 6 9 3 5 1011.6 1009.6 0.0
06/09:00pm 13.0 11.8 9.4 79 1.9 SE 6 7 3 4 1011.4 1009.4 0.0
06/08:30pm 14.4 12.6 9.6 73 2.6 SE 9 17 5 9 1010.9 1008.8 0.0
06/08:00pm 15.4 13.5 8.9 65 3.5 SSE 9 15 5 8 1010.4 1008.3 0.0
06/07:30pm 17.2 14.5 7.5 53 5.1 S 11 17 6 9 1010.0 1008.0 0.0
06/07:00pm 19.6 16.6 7.7 46 6.3 S 13 20 7 11 1009.5 1007.4 0.0
06/06:30pm 20.6 17.2 7.6 43 6.9 S 15 24 8 13 1009.2 1007.1 0.0
06/06:00pm 21.8 18.9 8.0 41 7.5 S 13 24 7 13 1008.8 1006.7 0.0
06/05:30pm 21.8 19.2 7.6 40 7.6 SSW 11 19 6 10 1008.3 1006.2 0.0
06/05:00pm 21.9 19.3 7.7 40 7.7 S 11 20 6 11 1008.1 1006.0 0.0
06/04:30pm 21.9 19.8 8.1 41 7.5 S 9 20 5 11 1008.1 1006.0 0.0
06/04:00pm 21.5 18.6 6.6 38 7.9 WSW 11 24 6 13 1008.2 1006.1 0.0
06/03:30pm 21.3 17.3 6.8 39 7.6 WSW 17 32 9 17 1008.4 1006.3 0.0
06/03:00pm 21.5 17.4 7.7 41 7.4 WSW 19 30 10 16 1008.5 1006.4 0.0
06/02:30pm 20.4 16.5 7.1 42 7.0 SW 17 30 9 16 1008.6 1006.6 0.0
06/02:00pm 20.1 16.1 6.8 42 7.0 WSW 17 28 9 15 1008.6 1006.6 0.0
06/01:30pm 20.8 16.6 8.4 45 6.7 W 20 39 11 21 1008.6 1006.6 0.0
06/01:00pm 19.1 15.2 7.2 46 6.3 W 17 28 9 15 1008.6 1006.6 0.0
06/12:30pm 18.6 16.1 8.0 50 5.6 WSW 11 24 6 13 1009.2 1007.1 0.0
06/12:00pm 17.4 13.5 6.9 50 5.4 W 17 28 9 15 1009.2 1007.1 0.0
06/11:30am 17.8 13.5 7.2 50 5.5 WNW 19 33 10 18 1009.2 1007.1 0.0
06/11:00am 16.9 12.3 6.4 50 5.4 WNW 20 33 11 18 1009.2 1007.1 0.0
06/10:30am 16.1 11.5 6.3 52 5.0 N 20 28 11 15 1009.2 1007.1 0.0
06/10:00am 14.7 10.4 5.2 53 4.7 N 17 24 9 13 1009.2 1007.1 0.0
06/09:30am 12.4 6.8 3.6 55 4.1 N 22 32 12 17 1009.2 1007.1 0.0
06/09:00am 11.6 5.5 2.6 54 4.1 NNW 24 33 13 18 1009.0 1006.9 0.0
06/08:30am 11.3 5.5 2.1 53 4.1 NNW 22 33 12 18 1008.9 1006.8 0.0
06/08:00am 10.7 5.5 2.3 56 3.8 N 19 24 10 13 1008.8 1006.7 0.0
06/07:30am 9.6 4.6 1.5 57 3.5 NNW 17 28 9 15 1008.6 1006.6 0.0
06/07:00am 9.6 5.3 1.3 56 3.6 NNW 13 19 7 10 1008.6 1006.6 0.0
06/06:30am 8.8 4.9 1.0 58 3.3 NNW 11 20 6 11 1008.9 1006.8 0.0
06/06:00am 8.7 4.7 0.4 56 3.5 N 11 15 6 8 1008.5 1006.4 0.0
06/05:30am 8.7 4.0 0.9 58 3.3 NNW 15 20 8 11 1008.3 1006.2 0.0
06/05:00am 8.8 3.7 0.5 56 3.5 NNW 17 20 9 11 1008.8 1006.7 0.0
06/04:30am 8.8 3.6 0.3 55 3.5 NNW 17 22 9 12 1008.9 1006.8 0.0
06/04:00am 8.3 4.3 0.3 57 3.3 N 11 15 6 8 1009.5 1007.4 0.0
06/03:30am 8.3 3.9 0.3 57 3.3 NNW 13 17 7 9 1009.8 1007.7 0.0
06/03:00am 8.0 4.7 0.3 58 3.2 N 7 11 4 6 1010.0 1008.0 0.0
06/02:30am 8.5 3.7 0.2 56 3.4 NNW 15 22 8 12 1010.4 1008.3 0.0
06/02:00am 8.5 4.1 0.2 56 3.5 NNW 13 20 7 11 1010.9 1008.8 0.0
06/01:30am 8.6 4.2 0.1 55 3.5 NNW 13 17 7 9 1011.5 1009.5 0.0
06/01:00am 7.8 3.9 1.0 62 2.9 NW 11 17 6 9 1011.6 1009.6 0.0
06/12:30am 8.1 4.2 1.3 62 2.9 NNW 11 15 6 8 1011.9 1009.8 0.0
06/12:00am 8.4 4.9 1.3 61 3.0 NNW 9 13 5 7 1012.0 1009.9 0.0
 
Date/Time
EDT
Temp
°C
App
Temp
°C
Dew
Point
Rel
Hum
%
Delta-T
°C
Wind Press
QNH
hPa
Press
MSL
hPa
Rain
since 9 am
mm
Dir
 
Spd
km/h
Gust
km/h
Spd
kts
Gust
kts
05/11:30pm 8.9 5.1 1.6 60 3.1 N 11 15 6 8 1012.4 1010.3 0.0
05/11:00pm 9.1 4.9 1.8 60 3.2 NNW 13 15 7 8 1012.5 1010.5 0.0
05/10:30pm 8.7 5.9 1.8 62 3.0 N 6 11 3 6 1012.8 1010.8 0.0
05/10:00pm 9.0 7.2 1.4 59 3.3 CALM 0 6 0 3 1013.1 1011.1 0.0
05/09:30pm 9.2 7.0 1.1 57 3.5 S 2 6 1 3 1013.6 1011.5 0.0
05/09:00pm 10.2 8.0 0.8 52 4.0 S 2 7 1 4 1013.3 1011.3 0.0
05/08:30pm 10.4 7.7 0.4 50 4.3 SE 4 7 2 4 1013.3 1011.3 0.0
05/08:00pm 11.3 8.0 0.1 46 4.8 S 7 15 4 8 1013.1 1011.1 0.0
05/07:30pm 12.7 9.0 -0.2 41 5.5 S 9 15 5 8 1013.0 1011.0 0.0
05/07:00pm 13.8 10.0 -1.0 36 6.3 S 9 17 5 9 1013.1 1011.1 0.0
05/06:30pm 14.8 9.3 -2.1 31 7.1 S 17 30 9 16 1013.0 1011.0 0.0
05/06:00pm 16.5 11.5 -1.1 30 7.7 S 15 24 8 13 1013.0 1011.0 0.0
05/05:30pm 16.7 11.8 -0.5 31 7.6 S 15 24 8 13 1012.9 1010.9 0.0
05/05:00pm 16.7 12.2 -0.5 31 7.6 SSE 13 26 7 14 1013.1 1011.1 0.0
05/04:30pm 17.0 11.8 0.2 32 7.5 S 17 32 9 17 1013.1 1011.1 0.0
05/04:00pm 16.3 11.2 0.8 35 7.0 SSE 17 26 9 14 1013.3 1011.3 0.0
05/03:30pm 16.1 11.0 0.7 35 6.9 S 17 26 9 14 1013.6 1011.5 0.0
05/03:00pm 16.8 11.3 0.9 34 7.2 S 19 28 10 15 1013.7 1011.6 0.0
05/02:30pm 17.0 11.6 1.4 35 7.2 S 19 32 10 17 1014.1 1012.1 0.0
05/02:00pm 17.0 11.6 1.0 34 7.3 SSE 19 35 10 19 1014.1 1012.1 0.0
05/01:30pm 16.4 10.8 0.9 35 7.0 SSE 20 39 11 21 1014.4 1012.4 0.0
05/01:00pm 16.8 10.9 1.7 36 7.0 SSE 22 39 12 21 1014.6 1012.6 0.0
05/12:30pm 15.1 8.5 -0.6 34 6.8 S 24 50 13 27 1014.6 1012.6 0.0
05/12:00pm 15.5 9.7 0.1 35 6.8 S 20 39 11 21 1014.4 1012.4 0.0
05/11:30am 14.0 8.4 -0.1 38 6.1 S 19 37 10 20 1014.5 1012.5 0.0
05/11:00am 13.3 6.7 -0.3 39 5.9 S 24 37 13 20 1014.3 1012.3 0.0
05/10:30am 13.1 6.6 0.2 41 5.6 S 24 39 13 21 1013.8 1011.8 0.0
05/10:00am 12.8 7.0 0.2 42 5.5 SSE 20 44 11 24 1013.2 1011.2 0.0
05/09:30am 12.4 6.5 -0.5 41 5.5 SSE 20 32 11 17 1013.1 1011.1 0.0
05/09:00am 12.2 6.3 1.8 49 4.6 SSE 22 35 12 19 1012.4 1010.3 0.0
05/08:30am 11.7 7.7 4.9 63 3.2 S 15 26 8 14 1011.7 1009.7 0.0
05/08:00am 10.1 5.7 6.4 78 1.8 S 19 30 10 16 1011.9 1009.8 0.0
05/07:30am 11.5 7.4 6.4 71 2.5 SSW 17 33 9 18 1010.6 1008.5 0.0
05/07:00am 12.6 9.3 6.6 67 3.0 S 13 28 7 15 1009.1 1007.0 0.0
05/06:30am 14.4 10.5 5.5 55 4.4 W 15 26 8 14 1008.1 1006.0 0.0
05/06:00am 14.0 10.4 5.1 55 4.3 NW 13 20 7 11 1007.7 1005.6 0.0
05/05:30am 13.6 10.1 5.5 58 4.0 NW 13 19 7 10 1007.5 1005.4 0.0
05/05:00am 12.9 10.7 6.3 64 3.3 W 7 22 4 12 1007.7 1005.6 0.0
05/04:30am 10.4 7.6 5.2 70 2.5 NNW 9 17 5 9 1007.4 1005.2 0.0
05/04:00am 9.2 6.9 4.8 74 2.1 SE 6 9 3 5 1007.3 1005.1 0.0
05/03:30am 8.7 6.3 4.1 73 2.1 SW 6 11 3 6 1008.0 1005.9 0.0
05/03:00am 10.6 9.0 4.3 65 2.9 WNW 2 7 1 4 1007.5 1005.4 0.0
05/02:30am 9.7 7.6 4.1 68 2.6 N 4 9 2 5 1007.6 1005.5 0.0
05/02:00am 9.6 7.4 5.4 75 2.0 W 6 13 3 7 1007.9 1005.8 0.0
05/01:30am 10.2 7.9 4.6 68 2.6 ENE 6 9 3 5 1008.6 1006.6 0.0
05/01:00am 9.9 7.8 5.9 76 1.9 ENE 6 9 3 5 1008.8 1006.7 0.0
05/12:30am 9.7 8.8 6.1 78 1.7 CALM 0 0 0 0 1009.3 1007.2 0.0
05/12:00am 11.0 8.8 5.5 69 2.6 NW 6 9 3 5 1009.4 1007.3 0.0
 
Date/Time
EDT
Temp
°C
App
Temp
°C
Dew
Point
Rel
Hum
%
Delta-T
°C
Wind Press
QNH
hPa
Press
MSL
hPa
Rain
since 9 am
mm
Dir
 
Spd
km/h
Gust
km/h
Spd
kts
Gust
kts
04/11:30pm 10.9 8.8 6.8 76 2.0 NNW 7 9 4 5 1009.5 1007.4 0.0
04/11:00pm 10.7 10.1 8.8 88 1.0 NNW 2 7 1 4 1009.9 1007.9 0.0
04/10:30pm 11.3 11.0 8.7 84 1.3 CALM 0 0 0 0 1010.4 1008.3 0.0
04/10:00pm 13.1 11.9 10.3 83 1.5 SSE 7 9 4 5 1010.9 1008.8 0.0
04/09:30pm 13.8 12.1 9.8 77 2.1 SE 9 13 5 7 1011.1 1009.0 0.0
04/09:00pm 15.1 14.0 10.1 72 2.7 SE 6 13 3 7 1011.1 1009.0 0.0
04/08:30pm 16.2 13.9 10.3 68 3.2 SE 13 19 7 10 1010.8 1008.7 0.0
04/08:00pm 20.0 16.1 -1.7 23 9.6 WNW 9 15 5 8 1010.6 1008.5 0.0
04/07:30pm 21.2 16.2 -1.3 22 10.2 NW 15 24 8 13 1010.2 1008.2 0.0
04/07:00pm 22.6 17.7 -0.2 22 10.7 NNW 15 19 8 10 1010.1 1008.1 0.0
04/06:30pm 24.1 18.6 0.4 21 11.3 NW 19 28 10 15 1009.9 1007.9 0.0
04/06:00pm 24.9 19.3 1.1 21 11.6 NW 20 30 11 16 1009.9 1007.9 0.0
04/05:30pm 25.6 19.6 1.0 20 12.0 NW 22 32 12 17 1009.8 1007.7 0.0
04/05:00pm 26.2 20.0 0.0 18 12.6 NW 22 28 12 15 1009.9 1007.9 0.0
04/04:30pm 26.4 19.5 -2.3 15 13.3 NW 24 35 13 19 1010.0 1008.0 0.0
04/04:00pm 27.0 21.2 -1.8 15 13.5 NW 19 33 10 18 1010.1 1008.1 0.0
04/03:30pm 27.3 22.6 -1.6 15 13.6 NW 13 28 7 15 1010.6 1008.5 0.0
04/03:00pm 27.6 22.3 -0.5 16 13.5 WNW 17 24 9 13 1010.9 1008.8 0.0
04/02:30pm 27.6 24.4 3.3 21 12.5 SSW 9 17 5 9 1011.2 1009.2 0.0
04/02:00pm 25.9 21.4 4.4 25 11.2 N 17 26 9 14 1011.6 1009.6 0.0
04/01:30pm 25.2 20.4 5.4 28 10.4 N 20 28 11 15 1012.0 1009.9 0.0
04/01:00pm 24.8 21.6 8.3 35 9.1 NNW 15 22 8 12 1012.6 1010.6 0.0
04/12:30pm 22.9 19.2 10.0 44 7.3 N 20 28 11 15 1013.1 1011.1 0.0
04/12:00pm 21.6 18.0 8.5 43 7.1 NNW 17 24 9 13 1013.9 1011.9 0.0
04/11:30am 19.9 16.7 11.1 57 5.0 N 19 22 10 12 1014.5 1012.5 0.0

Other Formats:

Comma delimited format used in spreadsheet applications
http://www.bom.gov.au/fwo/IDV60801/IDV60801.94908.axf

JavaScript Object Notation format (JSON) in row-major order
http://www.bom.gov.au/fwo/IDV60801/IDV60801.94908.json